Terminal Aerodrome Forecast
Issued by NWS

Home | Current Version | Previous Version | Text Only | Print | Product List | Glossary On
Versions: 1 2 3 4 5 6 7 8 9 10 11 12 13 14 15 16 17 18 19 20
141
FTAK31 PAJN 222337
TAFAYA
TAF
PAYA 222337Z 2300/2324 10008KT P6SM VCSH BKN015 BKN025
     FM230400 06004KT P6SM SCT005 BKN020 BKN035
      TEMPO 2309/2313 3SM BR BKN005 BKN020
     FM231500 VRB05KT P6SM SCT015 BKN025
     FM231900 28006KT P6SM SCT020 BKN040
      AMD LTD TO CLD VIS AND WIND 2301/2309=

USA.gov is the U.S. government's official web portal to all federal, state and local government web resources and services.